Margaret — WDC3267 — position and weather

sailwx.info

Track history (hours):
 
Tides and Currents Weather Stations Pressure Air Temp Water Temp Dewpoint Dewpoint Depression Visibility Wind Speed Wind Dir Waves Ship Positions

Margaret

More information available from US FCC via Universal Licensing System and Coast Guard Vessel Documentation Center.

Last reported at 2014-Aug-01 03:33 UTC. Time now 2014-Aug-01 03:54 UTC.
Position N 30°26' W 086°30'.

; draft 9 m.

Type: Towing. MMSI: 367004940.

Date/timePositionNaut miles runAvg speedWind from/ knotsBaromVisibWave heightAir tempDewpointWater temp
2014-Aug-01 03:33N 30°26' W 086°30'6 6.1
2014-Aug-01 02:33N 30°26' W 086°23'7 0.3
2014-Jul-30 23:05N 30°26' W 086°14'3 5.7
2014-Jul-30 22:33N 30°26' W 086°18'6 5.9
2014-Jul-30 21:33N 30°26' W 086°25'5 5.2
2014-Jul-30 20:33N 30°25' W 086°31'11 5.2
2014-Jul-30 18:24N 30°24' W 086°44'4 5.3
2014-Jul-30 17:33N 30°24' W 086°49'2 1.6
2014-Jul-30 16:28N 30°24' W 086°51'2 1.5
2014-Jul-30 15:12N 30°24' W 086°53'  
Track history (hours):
 
Tides and Currents Weather Stations Pressure Air Temp Water Temp Dewpoint Dewpoint Depression Visibility Wind Speed Wind Dir Waves Ship Positions

Margaret

More information available from US FCC via Universal Licensing System and Coast Guard Vessel Documentation Center.

Last reported at 2014-Aug-01 03:33 UTC. Time now 2014-Aug-01 03:54 UTC.
Position N 30°26' W 086°30'.

; draft 9 m.

Type: Towing. MMSI: 367004940.

Date/timePositionNaut miles runAvg speedWind from/ knotsBaromVisibWave heightAir tempDewpointWater temp
2014-Aug-01 03:33N 30°26' W 086°30'6 6.1
2014-Aug-01 02:33N 30°26' W 086°23'7 0.3
2014-Jul-30 23:05N 30°26' W 086°14'3 5.7
2014-Jul-30 22:33N 30°26' W 086°18'6 5.9
2014-Jul-30 21:33N 30°26' W 086°25'5 5.2
2014-Jul-30 20:33N 30°25' W 086°31'11 5.2
2014-Jul-30 18:24N 30°24' W 086°44'4 5.3
2014-Jul-30 17:33N 30°24' W 086°49'2 1.6
2014-Jul-30 16:28N 30°24' W 086°51'2 1.5
2014-Jul-30 15:12N 30°24' W 086°53'  

Dump ship's entire track history